Terminal Aerodrome Forecast
Issued by NWS

Home | Current Version | Previous Version | Text Only | Print | Product List | Glossary On
Versions: 1 2 3 4 5 6 7 8 9 10 11 12 13 14 15 16 17 18 19 20 21 22 23 24 25 26 27 28 29 30 31 32 33 34 35 36 37 38 39 40 41
000
FTUS43 KDDC 300538
TAFGCK
TAF
KGCK 300538Z 3006/0106 36029G38KT 2SM -SN BR BKN007 OVC011
      TEMPO 3011/3015 1/4SM +SN FG OVC003
     FM301800 34031G44KT 2SM -SN OVC008
     FM302300 32027G36KT P6SM OVC025
     FM010000 32026G34KT P6SM BKN035=

USA.gov is the U.S. government's official web portal to all federal, state and local government web resources and services.